createdAt,value
2022-09-17T00:02:42.726Z,988.46
2022-09-17T00:09:11.436Z,988.43
2022-09-17T00:14:11.096Z,988.48
2022-09-17T00:19:12.426Z,988.47
2022-09-17T00:24:11.161Z,988.46
2022-09-17T00:29:11.035Z,988.50
2022-09-17T00:34:10.905Z,988.47
2022-09-17T00:39:10.900Z,988.56
2022-09-17T00:44:10.791Z,988.55
2022-09-17T00:49:10.701Z,988.49
2022-09-17T00:54:10.589Z,988.54
2022-09-17T00:59:13.720Z,988.59
2022-09-17T01:04:10.467Z,988.62
2022-09-17T01:09:10.459Z,988.58
2022-09-17T01:17:39.244Z,988.65
2022-09-17T01:22:39.114Z,988.65
2022-09-17T01:27:42.445Z,988.57
2022-09-17T01:32:39.880Z,988.57
2022-09-17T01:37:38.761Z,988.59
2022-09-17T01:42:38.816Z,988.62
2022-09-17T01:49:09.806Z,988.62
2022-09-17T01:54:09.673Z,988.61
2022-09-17T01:59:09.660Z,988.61
2022-09-17T02:04:09.581Z,988.57
2022-09-17T02:09:13.679Z,988.70
2022-09-17T02:14:10.316Z,988.66
2022-09-17T02:19:09.275Z,988.63
2022-09-17T02:24:09.143Z,988.66
2022-09-17T02:29:09.245Z,988.62
2022-09-17T02:34:09.234Z,988.60
2022-09-17T02:39:12.036Z,988.65
2022-09-17T02:44:08.991Z,988.64
2022-09-17T02:49:09.120Z,988.62
2022-09-17T02:54:08.686Z,988.55
2022-09-17T02:59:08.641Z,988.71
2022-09-17T03:04:08.571Z,988.56
2022-09-17T03:09:08.790Z,988.49
2022-09-17T03:14:08.490Z,988.55
2022-09-17T03:19:08.487Z,988.57
2022-09-17T03:24:08.364Z,988.62
2022-09-17T03:29:08.421Z,988.58
2022-09-17T03:34:15.350Z,988.65
2022-09-17T03:41:52.596Z,988.71
2022-09-17T03:46:52.586Z,988.76
2022-09-17T03:51:53.223Z,988.73
2022-09-17T03:56:52.315Z,988.79
2022-09-17T04:01:52.521Z,988.79
2022-09-17T04:06:52.041Z,988.78
2022-09-17T04:11:52.241Z,988.79
2022-09-17T04:16:51.921Z,988.85
2022-09-17T04:21:51.913Z,988.85
2022-09-17T04:26:51.777Z,988.88
2022-09-17T04:31:54.826Z,988.85
2022-09-17T04:36:59.733Z,988.84
2022-09-17T04:41:51.656Z,988.89
2022-09-17T04:46:51.764Z,988.81
2022-09-17T04:51:51.823Z,988.88
2022-09-17T04:56:51.570Z,988.87
2022-09-17T05:01:51.535Z,988.98
2022-09-17T05:06:51.531Z,989.02
2022-09-17T05:11:51.476Z,989.00
2022-09-17T05:16:51.859Z,989.09
2022-09-17T05:21:53.228Z,989.19
2022-09-17T05:30:31.431Z,989.25
2022-09-17T05:35:31.101Z,989.26
2022-09-17T05:40:31.679Z,989.33
2022-09-17T05:46:52.310Z,989.28
2022-09-17T05:51:51.862Z,989.44
2022-09-17T05:56:51.651Z,989.41
2022-09-17T06:01:51.637Z,989.46
2022-09-17T06:06:51.794Z,989.48
2022-09-17T06:11:51.670Z,989.56
2022-09-17T06:16:51.386Z,989.59
2022-09-17T06:21:51.305Z,989.64
2022-09-17T06:26:51.448Z,989.65
2022-09-17T06:31:51.451Z,989.67
2022-09-17T06:36:54.435Z,989.72
2022-09-17T06:41:51.176Z,989.70
2022-09-17T06:48:30.606Z,989.71
2022-09-17T06:53:39.865Z,989.66
2022-09-17T06:58:30.305Z,989.65
2022-09-17T07:03:30.704Z,989.50
2022-09-17T07:08:30.311Z,989.46
2022-09-17T07:13:30.171Z,989.56
2022-09-17T07:18:30.071Z,989.42
2022-09-17T07:23:30.031Z,989.48
2022-09-17T07:28:29.918Z,989.51
2022-09-17T07:33:30.058Z,989.60
2022-09-17T07:38:33.031Z,989.61
2022-09-17T07:43:29.861Z,989.48
2022-09-17T07:48:29.615Z,989.62
2022-09-17T07:53:29.606Z,989.57
2022-09-17T07:58:29.535Z,989.55
2022-09-17T08:03:29.386Z,989.63
2022-09-17T08:08:29.356Z,989.67
2022-09-17T08:13:29.323Z,989.77
2022-09-17T08:18:29.310Z,989.82
2022-09-17T08:23:29.295Z,989.95
2022-09-17T08:28:36.621Z,989.95
2022-09-17T08:33:28.980Z,990.00
2022-09-17T08:38:37.104Z,989.91
2022-09-17T08:43:29.872Z,990.14
2022-09-17T08:48:28.912Z,990.13
2022-09-17T08:53:28.716Z,990.13
2022-09-17T08:58:28.731Z,990.15
2022-09-17T09:03:28.610Z,990.30
2022-09-17T09:08:29.621Z,990.31
2022-09-17T09:13:28.557Z,990.41
2022-09-17T09:18:28.440Z,990.47
2022-09-17T09:23:28.405Z,990.45
2022-09-17T09:28:28.436Z,990.45
2022-09-17T09:33:28.293Z,990.43
2022-09-17T09:38:31.203Z,990.39
2022-09-17T09:43:46.346Z,990.39
2022-09-17T09:48:29.194Z,990.35
2022-09-17T09:53:28.051Z,990.26
2022-09-17T09:58:30.261Z,990.50
2022-09-17T10:44:37.983Z,990.30
2022-09-17T10:52:08.610Z,990.20
2022-09-17T10:57:08.295Z,990.12
2022-09-17T11:02:07.744Z,990.35
2022-09-17T11:07:07.600Z,990.37
2022-09-17T11:12:07.363Z,990.21
2022-09-17T11:17:07.331Z,990.16
2022-09-17T11:22:07.321Z,990.12
2022-09-17T11:27:07.239Z,990.05
2022-09-17T11:32:07.067Z,990.05
2022-09-17T11:37:06.988Z,990.31
2022-09-17T11:42:10.361Z,990.07
2022-09-17T11:47:15.746Z,990.03
2022-09-17T11:52:06.801Z,990.01
2022-09-17T11:57:18.594Z,989.92
2022-09-17T12:02:14.627Z,989.90
2022-09-17T12:07:06.615Z,990.02
2022-09-17T12:12:06.555Z,990.01
2022-09-17T12:17:06.806Z,989.92
2022-09-17T12:22:06.568Z,989.95
2022-09-17T12:27:06.372Z,989.76
2022-09-17T12:32:06.305Z,989.68
2022-09-17T12:37:06.512Z,989.71
2022-09-17T12:42:16.630Z,989.57
2022-09-17T12:47:06.361Z,989.60
2022-09-17T13:04:43.577Z,989.70
2022-09-17T13:24:38.222Z,989.53
2022-09-17T13:29:36.917Z,989.45
2022-09-17T13:34:36.641Z,989.48
2022-09-17T13:39:38.261Z,989.74
2022-09-17T13:44:36.670Z,989.76
2022-09-17T13:49:36.681Z,989.87
2022-09-17T13:54:36.516Z,989.79
2022-09-17T13:59:37.675Z,989.66
2022-09-17T14:04:37.326Z,989.52
2022-09-17T14:09:39.378Z,989.46
2022-09-17T14:14:39.071Z,989.47
2022-09-17T14:19:36.066Z,989.56
2022-09-17T14:24:36.065Z,989.49
2022-09-17T14:29:35.876Z,989.63
2022-09-17T14:34:35.801Z,989.60
2022-09-17T14:39:35.691Z,989.49
2022-09-17T14:44:35.891Z,989.54
2022-09-17T14:49:35.556Z,989.56
2022-09-17T14:54:36.683Z,989.59
2022-09-17T14:59:35.576Z,989.45
2022-09-17T15:08:06.046Z,989.34
2022-09-17T15:13:07.797Z,989.46
2022-09-17T15:18:05.781Z,989.69
2022-09-17T15:39:30.996Z,989.72
2022-09-17T15:44:31.709Z,989.66
2022-09-17T15:49:30.792Z,989.65
2022-09-17T15:54:30.811Z,989.67
2022-09-17T15:59:30.703Z,989.73
2022-09-17T16:04:30.700Z,989.76
2022-09-17T16:09:30.516Z,989.83
2022-09-17T16:14:30.336Z,989.89
2022-09-17T16:31:24.094Z,990.46
2022-09-17T16:36:23.972Z,990.16
2022-09-17T16:41:24.003Z,990.16
2022-09-17T16:46:23.896Z,990.15
2022-09-17T16:51:23.922Z,990.10
2022-09-17T16:56:23.673Z,990.01
2022-09-17T17:01:23.847Z,989.92
2022-09-17T17:06:23.636Z,989.88
2022-09-17T17:11:32.753Z,989.84
2022-09-17T17:16:23.640Z,989.78
2022-09-17T17:21:26.686Z,989.83
2022-09-17T17:26:23.456Z,989.78
2022-09-17T17:31:23.455Z,989.78
2022-09-17T17:36:23.234Z,989.84
2022-09-17T17:41:23.118Z,989.84
2022-09-17T17:46:23.175Z,989.94
2022-09-17T17:51:23.074Z,990.02
2022-09-17T17:56:22.901Z,990.16
2022-09-17T18:01:23.174Z,990.37
2022-09-17T18:06:22.791Z,990.47
2022-09-17T18:11:22.993Z,990.49
2022-09-17T18:16:22.993Z,990.56
2022-09-17T18:21:25.749Z,990.47
2022-09-17T18:26:22.552Z,990.49
2022-09-17T18:31:22.906Z,990.54
2022-09-17T18:36:22.935Z,990.69
2022-09-17T18:41:22.543Z,990.71
2022-09-17T18:47:40.130Z,990.68
2022-09-17T18:55:06.356Z,990.72
2022-09-17T19:00:06.176Z,990.73
2022-09-17T19:05:06.156Z,990.73
2022-09-17T19:10:06.075Z,990.74
2022-09-17T19:20:04.386Z,990.75
2022-09-17T19:25:04.091Z,990.74
2022-09-17T19:30:04.348Z,990.76
2022-09-17T19:35:04.043Z,990.80
2022-09-17T19:49:51.428Z,990.65
2022-09-17T19:54:51.463Z,990.63
2022-09-17T19:59:51.357Z,990.66
2022-09-17T20:04:51.556Z,990.56
2022-09-17T20:09:51.261Z,990.48
2022-09-17T20:14:53.153Z,990.53
2022-09-17T20:19:51.191Z,990.41
2022-09-17T20:24:51.234Z,990.47
2022-09-17T21:20:20.904Z,990.71
2022-09-17T21:25:19.976Z,990.73
2022-09-17T21:30:19.902Z,990.80
2022-09-17T21:35:27.411Z,990.78
2022-09-17T21:41:59.366Z,990.77
2022-09-17T21:46:59.110Z,990.77
2022-09-17T21:51:59.118Z,990.84
2022-09-17T21:56:59.061Z,990.86
2022-09-17T22:01:59.160Z,990.83
2022-09-17T22:06:59.010Z,990.86
2022-09-17T22:11:58.811Z,990.86
2022-09-17T22:16:58.707Z,990.86
2022-09-17T22:21:58.875Z,990.83
2022-09-17T22:26:58.706Z,990.83
2022-09-17T22:32:01.616Z,990.85
2022-09-17T22:36:58.452Z,990.84
2022-09-17T22:41:58.476Z,990.80
2022-09-17T22:46:58.447Z,990.78
2022-09-17T22:51:58.451Z,990.88
2022-09-17T22:56:58.343Z,990.92
2022-09-17T23:01:58.264Z,990.92
2022-09-17T23:06:58.020Z,990.98
2022-09-17T23:11:58.496Z,990.91
2022-09-17T23:16:58.295Z,990.87
2022-09-17T23:21:58.076Z,990.89
2022-09-17T23:26:57.988Z,990.94
2022-09-17T23:32:00.912Z,990.94
2022-09-17T23:36:57.671Z,990.89
2022-09-17T23:41:57.711Z,990.94
2022-09-17T23:46:57.480Z,990.94
2022-09-17T23:51:57.531Z,991.10
2022-09-17T23:56:57.350Z,991.14
